sensor_id;sensor_type;location;lat;lon;timestamp;temperature;humidity
22813;DHT22;11573;51.334;3.244;2022-09-24T00:01:34;13.80;99.90
22813;DHT22;11573;51.334;3.244;2022-09-24T00:04:09;13.80;99.90
22813;DHT22;11573;51.334;3.244;2022-09-24T00:06:42;13.80;99.90
22813;DHT22;11573;51.334;3.244;2022-09-24T00:09:16;13.80;99.90
22813;DHT22;11573;51.334;3.244;2022-09-24T00:11:44;13.80;99.90
22813;DHT22;11573;51.334;3.244;2022-09-24T00:14:11;13.80;99.90
22813;DHT22;11573;51.334;3.244;2022-09-24T00:16:39;13.90;99.90
22813;DHT22;11573;51.334;3.244;2022-09-24T00:19:07;13.90;99.90
22813;DHT22;11573;51.334;3.244;2022-09-24T00:21:35;13.90;99.90
22813;DHT22;11573;51.334;3.244;2022-09-24T00:24:09;13.90;99.90
22813;DHT22;11573;51.334;3.244;2022-09-24T00:26:36;13.90;99.90
22813;DHT22;11573;51.334;3.244;2022-09-24T00:29:21;13.90;99.90
22813;DHT22;11573;51.334;3.244;2022-09-24T00:31:49;14.00;99.90
22813;DHT22;11573;51.334;3.244;2022-09-24T00:34:17;14.00;99.90
22813;DHT22;11573;51.334;3.244;2022-09-24T00:36:45;14.10;99.90
22813;DHT22;11573;51.334;3.244;2022-09-24T00:39:13;14.10;99.90
22813;DHT22;11573;51.334;3.244;2022-09-24T00:41:41;14.10;99.90
22813;DHT22;11573;51.334;3.244;2022-09-24T00:49:49;14.20;99.90
22813;DHT22;11573;51.334;3.244;2022-09-24T00:52:17;14.10;99.90
22813;DHT22;11573;51.334;3.244;2022-09-24T00:54:45;14.20;99.90
22813;DHT22;11573;51.334;3.244;2022-09-24T00:57:13;14.30;99.90
22813;DHT22;11573;51.334;3.244;2022-09-24T00:59:41;14.30;99.90
22813;DHT22;11573;51.334;3.244;2022-09-24T01:02:09;14.30;99.90
22813;DHT22;11573;51.334;3.244;2022-09-24T01:04:36;14.20;99.90
22813;DHT22;11573;51.334;3.244;2022-09-24T01:07:03;14.20;99.90
22813;DHT22;11573;51.334;3.244;2022-09-24T01:09:30;14.10;99.90
22813;DHT22;11573;51.334;3.244;2022-09-24T01:12:23;14.10;99.90
22813;DHT22;11573;51.334;3.244;2022-09-24T01:17:43;14.00;99.90
22813;DHT22;11573;51.334;3.244;2022-09-24T01:30:47;13.90;99.90
22813;DHT22;11573;51.334;3.244;2022-09-24T01:33:19;13.90;99.90
22813;DHT22;11573;51.334;3.244;2022-09-24T01:35:53;13.90;99.90
22813;DHT22;11573;51.334;3.244;2022-09-24T01:38:30;13.90;99.90
22813;DHT22;11573;51.334;3.244;2022-09-24T01:41:02;13.90;99.90
22813;DHT22;11573;51.334;3.244;2022-09-24T01:43:30;13.80;99.90
22813;DHT22;11573;51.334;3.244;2022-09-24T01:46:01;13.90;99.90
22813;DHT22;11573;51.334;3.244;2022-09-24T01:48:29;13.80;99.90
22813;DHT22;11573;51.334;3.244;2022-09-24T01:51:10;13.80;99.90
22813;DHT22;11573;51.334;3.244;2022-09-24T01:54:00;13.80;99.90
22813;DHT22;11573;51.334;3.244;2022-09-24T01:56:33;13.80;99.90
22813;DHT22;11573;51.334;3.244;2022-09-24T02:01:54;13.80;99.90
22813;DHT22;11573;51.334;3.244;2022-09-24T02:04:24;13.80;99.90
22813;DHT22;11573;51.334;3.244;2022-09-24T02:07:06;13.80;99.90
22813;DHT22;11573;51.334;3.244;2022-09-24T02:09:39;13.70;99.90
22813;DHT22;11573;51.334;3.244;2022-09-24T02:12:19;13.70;99.90
22813;DHT22;11573;51.334;3.244;2022-09-24T02:14:53;13.70;99.90
22813;DHT22;11573;51.334;3.244;2022-09-24T02:17:23;13.60;99.90
22813;DHT22;11573;51.334;3.244;2022-09-24T02:19:54;13.70;99.90
22813;DHT22;11573;51.334;3.244;2022-09-24T02:22:23;13.70;99.90
22813;DHT22;11573;51.334;3.244;2022-09-24T02:24:53;13.60;99.90
22813;DHT22;11573;51.334;3.244;2022-09-24T02:27:24;13.60;99.90
22813;DHT22;11573;51.334;3.244;2022-09-24T02:29:55;13.70;99.90
22813;DHT22;11573;51.334;3.244;2022-09-24T02:32:25;13.80;99.90
22813;DHT22;11573;51.334;3.244;2022-09-24T02:34:57;13.80;99.90
22813;DHT22;11573;51.334;3.244;2022-09-24T02:37:32;13.70;99.90
22813;DHT22;11573;51.334;3.244;2022-09-24T02:39:59;13.70;99.90
22813;DHT22;11573;51.334;3.244;2022-09-24T02:42:26;13.80;99.90
22813;DHT22;11573;51.334;3.244;2022-09-24T02:44:54;13.80;99.90
22813;DHT22;11573;51.334;3.244;2022-09-24T02:47:23;13.80;99.90
22813;DHT22;11573;51.334;3.244;2022-09-24T02:49:49;13.70;99.90
22813;DHT22;11573;51.334;3.244;2022-09-24T02:52:17;13.70;99.90
22813;DHT22;11573;51.334;3.244;2022-09-24T02:54:44;13.70;99.90
22813;DHT22;11573;51.334;3.244;2022-09-24T02:57:11;13.70;99.90
22813;DHT22;11573;51.334;3.244;2022-09-24T02:59:38;13.80;99.90
22813;DHT22;11573;51.334;3.244;2022-09-24T03:02:05;13.80;99.90
22813;DHT22;11573;51.334;3.244;2022-09-24T03:04:32;13.80;99.90
22813;DHT22;11573;51.334;3.244;2022-09-24T03:06:58;13.80;99.90
22813;DHT22;11573;51.334;3.244;2022-09-24T03:09:25;13.90;99.90
22813;DHT22;11573;51.334;3.244;2022-09-24T03:11:52;13.90;99.90
22813;DHT22;11573;51.334;3.244;2022-09-24T03:14:19;13.80;99.90
22813;DHT22;11573;51.334;3.244;2022-09-24T03:16:46;14.00;99.90
22813;DHT22;11573;51.334;3.244;2022-09-24T03:19:13;13.90;99.90
22813;DHT22;11573;51.334;3.244;2022-09-24T03:21:40;13.90;99.90
22813;DHT22;11573;51.334;3.244;2022-09-24T03:24:07;14.00;99.90
22813;DHT22;11573;51.334;3.244;2022-09-24T03:26:34;14.00;99.90
22813;DHT22;11573;51.334;3.244;2022-09-24T03:29:01;13.90;99.90
22813;DHT22;11573;51.334;3.244;2022-09-24T03:31:27;14.00;99.90
22813;DHT22;11573;51.334;3.244;2022-09-24T03:33:54;14.10;99.90
22813;DHT22;11573;51.334;3.244;2022-09-24T03:36:24;14.00;99.90
22813;DHT22;11573;51.334;3.244;2022-09-24T03:38:53;14.00;99.90
22813;DHT22;11573;51.334;3.244;2022-09-24T03:41:24;14.10;99.90
22813;DHT22;11573;51.334;3.244;2022-09-24T03:43:53;14.10;99.90
22813;DHT22;11573;51.334;3.244;2022-09-24T03:46:20;14.00;99.90
22813;DHT22;11573;51.334;3.244;2022-09-24T03:48:47;14.10;99.90
22813;DHT22;11573;51.334;3.244;2022-09-24T03:51:17;14.10;99.90
22813;DHT22;11573;51.334;3.244;2022-09-24T03:53:47;14.10;99.90
22813;DHT22;11573;51.334;3.244;2022-09-24T03:56:14;14.00;99.90
22813;DHT22;11573;51.334;3.244;2022-09-24T03:58:41;14.10;99.90
22813;DHT22;11573;51.334;3.244;2022-09-24T04:01:15;14.10;99.90
22813;DHT22;11573;51.334;3.244;2022-09-24T04:03:47;14.00;99.90
22813;DHT22;11573;51.334;3.244;2022-09-24T04:06:14;14.10;99.90
22813;DHT22;11573;51.334;3.244;2022-09-24T04:08:42;14.00;99.90
22813;DHT22;11573;51.334;3.244;2022-09-24T04:11:09;14.10;99.90
22813;DHT22;11573;51.334;3.244;2022-09-24T04:13:36;14.10;99.90
22813;DHT22;11573;51.334;3.244;2022-09-24T04:16:03;14.20;99.90
22813;DHT22;11573;51.334;3.244;2022-09-24T04:18:30;14.10;99.90
22813;DHT22;11573;51.334;3.244;2022-09-24T04:21:04;14.10;99.90
22813;DHT22;11573;51.334;3.244;2022-09-24T04:23:31;14.10;99.90
22813;DHT22;11573;51.334;3.244;2022-09-24T04:25:58;14.10;99.90
22813;DHT22;11573;51.334;3.244;2022-09-24T04:28:29;14.10;99.90
22813;DHT22;11573;51.334;3.244;2022-09-24T04:30:56;14.00;99.90
22813;DHT22;11573;51.334;3.244;2022-09-24T04:33:24;14.10;99.90
22813;DHT22;11573;51.334;3.244;2022-09-24T04:35:51;14.00;99.90
22813;DHT22;11573;51.334;3.244;2022-09-24T04:38:18;14.10;99.90
22813;DHT22;11573;51.334;3.244;2022-09-24T04:40:46;14.10;99.90
22813;DHT22;11573;51.334;3.244;2022-09-24T04:43:13;14.10;99.90
22813;DHT22;11573;51.334;3.244;2022-09-24T04:45:40;14.10;99.90
22813;DHT22;11573;51.334;3.244;2022-09-24T04:48:09;14.10;99.90
22813;DHT22;11573;51.334;3.244;2022-09-24T04:50:36;14.20;99.90
22813;DHT22;11573;51.334;3.244;2022-09-24T04:53:11;14.60;99.90
22813;DHT22;11573;51.334;3.244;2022-09-24T04:55:38;14.90;99.90
22813;DHT22;11573;51.334;3.244;2022-09-24T04:58:05;15.00;99.90
22813;DHT22;11573;51.334;3.244;2022-09-24T05:00:32;15.10;99.90
22813;DHT22;11573;51.334;3.244;2022-09-24T05:03:00;15.10;99.90
22813;DHT22;11573;51.334;3.244;2022-09-24T05:05:32;15.20;99.90
22813;DHT22;11573;51.334;3.244;2022-09-24T05:08:00;15.20;99.90
22813;DHT22;11573;51.334;3.244;2022-09-24T05:10:29;15.30;99.90
22813;DHT22;11573;51.334;3.244;2022-09-24T05:13:01;15.20;99.90
22813;DHT22;11573;51.334;3.244;2022-09-24T05:15:28;15.20;99.90
22813;DHT22;11573;51.334;3.244;2022-09-24T05:17:55;15.20;99.90
22813;DHT22;11573;51.334;3.244;2022-09-24T05:20:23;15.30;99.90
22813;DHT22;11573;51.334;3.244;2022-09-24T05:23:20;15.40;99.90
22813;DHT22;11573;51.334;3.244;2022-09-24T05:25:47;15.40;99.90
22813;DHT22;11573;51.334;3.244;2022-09-24T05:28:32;15.50;99.90
22813;DHT22;11573;51.334;3.244;2022-09-24T05:30:59;15.50;99.90
22813;DHT22;11573;51.334;3.244;2022-09-24T05:33:26;15.50;99.90
22813;DHT22;11573;51.334;3.244;2022-09-24T05:35:54;15.50;99.90
22813;DHT22;11573;51.334;3.244;2022-09-24T05:38:21;15.50;99.90
22813;DHT22;11573;51.334;3.244;2022-09-24T05:40:49;15.50;99.90
22813;DHT22;11573;51.334;3.244;2022-09-24T05:43:17;15.60;99.90
22813;DHT22;11573;51.334;3.244;2022-09-24T05:45:47;15.50;99.90
22813;DHT22;11573;51.334;3.244;2022-09-24T05:48:15;15.50;99.90
22813;DHT22;11573;51.334;3.244;2022-09-24T05:50:42;15.50;99.90
22813;DHT22;11573;51.334;3.244;2022-09-24T05:53:09;15.60;99.90
22813;DHT22;11573;51.334;3.244;2022-09-24T05:55:36;15.70;99.90
22813;DHT22;11573;51.334;3.244;2022-09-24T05:58:08;15.70;99.90
22813;DHT22;11573;51.334;3.244;2022-09-24T06:00:35;15.70;99.90
22813;DHT22;11573;51.334;3.244;2022-09-24T06:03:04;15.80;99.90
22813;DHT22;11573;51.334;3.244;2022-09-24T06:05:33;15.80;99.90
22813;DHT22;11573;51.334;3.244;2022-09-24T06:08:02;15.80;99.90
22813;DHT22;11573;51.334;3.244;2022-09-24T06:10:29;15.80;99.90
22813;DHT22;11573;51.334;3.244;2022-09-24T06:12:56;15.80;99.90
22813;DHT22;11573;51.334;3.244;2022-09-24T06:15:23;15.80;99.90
22813;DHT22;11573;51.334;3.244;2022-09-24T06:17:53;15.80;99.90
22813;DHT22;11573;51.334;3.244;2022-09-24T06:20:21;15.90;99.90
22813;DHT22;11573;51.334;3.244;2022-09-24T06:22:48;16.00;99.90
22813;DHT22;11573;51.334;3.244;2022-09-24T06:25:16;16.20;99.90
22813;DHT22;11573;51.334;3.244;2022-09-24T06:27:43;16.10;99.90
22813;DHT22;11573;51.334;3.244;2022-09-24T06:30:10;16.10;99.90
22813;DHT22;11573;51.334;3.244;2022-09-24T06:32:37;16.00;99.90
22813;DHT22;11573;51.334;3.244;2022-09-24T06:35:04;16.00;99.90
22813;DHT22;11573;51.334;3.244;2022-09-24T06:37:32;15.90;99.90
22813;DHT22;11573;51.334;3.244;2022-09-24T06:39:59;15.90;99.90
22813;DHT22;11573;51.334;3.244;2022-09-24T06:42:26;15.80;99.90
22813;DHT22;11573;51.334;3.244;2022-09-24T06:44:54;15.80;99.90
22813;DHT22;11573;51.334;3.244;2022-09-24T06:47:21;15.80;99.90
22813;DHT22;11573;51.334;3.244;2022-09-24T06:49:49;15.80;99.90
22813;DHT22;11573;51.334;3.244;2022-09-24T06:52:16;15.80;99.90
22813;DHT22;11573;51.334;3.244;2022-09-24T06:54:43;15.80;99.90
22813;DHT22;11573;51.334;3.244;2022-09-24T06:57:10;15.80;99.90
22813;DHT22;11573;51.334;3.244;2022-09-24T06:59:37;15.70;99.90
22813;DHT22;11573;51.334;3.244;2022-09-24T07:02:04;15.70;99.90
22813;DHT22;11573;51.334;3.244;2022-09-24T07:04:31;15.70;99.90
22813;DHT22;11573;51.334;3.244;2022-09-24T07:06:57;15.70;99.90
22813;DHT22;11573;51.334;3.244;2022-09-24T07:09:43;15.70;99.90
22813;DHT22;11573;51.334;3.244;2022-09-24T07:12:10;15.70;99.90
22813;DHT22;11573;51.334;3.244;2022-09-24T07:14:36;15.70;99.90
22813;DHT22;11573;51.334;3.244;2022-09-24T07:17:03;15.80;99.90
22813;DHT22;11573;51.334;3.244;2022-09-24T07:19:31;15.80;99.90
22813;DHT22;11573;51.334;3.244;2022-09-24T07:21:58;15.80;99.90
22813;DHT22;11573;51.334;3.244;2022-09-24T07:24:25;15.70;99.90
22813;DHT22;11573;51.334;3.244;2022-09-24T07:26:52;15.70;99.90
22813;DHT22;11573;51.334;3.244;2022-09-24T07:29:19;15.50;99.90
22813;DHT22;11573;51.334;3.244;2022-09-24T07:31:46;15.50;99.90
22813;DHT22;11573;51.334;3.244;2022-09-24T07:34:13;15.50;99.90
22813;DHT22;11573;51.334;3.244;2022-09-24T07:36:41;15.50;99.90
22813;DHT22;11573;51.334;3.244;2022-09-24T07:39:08;15.50;99.90
22813;DHT22;11573;51.334;3.244;2022-09-24T07:41:35;15.50;99.90
22813;DHT22;11573;51.334;3.244;2022-09-24T07:44:08;15.60;99.90
22813;DHT22;11573;51.334;3.244;2022-09-24T07:46:35;15.70;99.90
22813;DHT22;11573;51.334;3.244;2022-09-24T07:49:02;15.70;99.90
22813;DHT22;11573;51.334;3.244;2022-09-24T07:51:29;15.80;99.90
22813;DHT22;11573;51.334;3.244;2022-09-24T07:53:56;15.80;99.90
22813;DHT22;11573;51.334;3.244;2022-09-24T07:56:24;15.90;99.90
22813;DHT22;11573;51.334;3.244;2022-09-24T07:58:52;16.00;99.90
22813;DHT22;11573;51.334;3.244;2022-09-24T08:01:19;16.10;99.90
22813;DHT22;11573;51.334;3.244;2022-09-24T08:03:46;16.50;99.90
22813;DHT22;11573;51.334;3.244;2022-09-24T08:06:13;16.50;99.90
22813;DHT22;11573;51.334;3.244;2022-09-24T08:08:40;16.70;99.90
22813;DHT22;11573;51.334;3.244;2022-09-24T08:11:10;16.70;99.90
22813;DHT22;11573;51.334;3.244;2022-09-24T08:13:42;16.70;99.90
22813;DHT22;11573;51.334;3.244;2022-09-24T08:16:10;16.70;99.90
22813;DHT22;11573;51.334;3.244;2022-09-24T08:18:38;16.70;99.90
22813;DHT22;11573;51.334;3.244;2022-09-24T08:21:07;16.70;99.90
22813;DHT22;11573;51.334;3.244;2022-09-24T08:23:39;16.70;99.90
22813;DHT22;11573;51.334;3.244;2022-09-24T08:26:06;16.60;99.90
22813;DHT22;11573;51.334;3.244;2022-09-24T08:28:33;16.60;99.90
22813;DHT22;11573;51.334;3.244;2022-09-24T08:31:02;16.60;99.90
22813;DHT22;11573;51.334;3.244;2022-09-24T08:33:31;16.70;99.90
22813;DHT22;11573;51.334;3.244;2022-09-24T08:35:59;16.80;99.90
22813;DHT22;11573;51.334;3.244;2022-09-24T08:38:26;16.90;99.90
22813;DHT22;11573;51.334;3.244;2022-09-24T08:41:33;16.90;99.90
22813;DHT22;11573;51.334;3.244;2022-09-24T08:44:06;17.10;99.90
22813;DHT22;11573;51.334;3.244;2022-09-24T08:46:46;17.10;99.90
22813;DHT22;11573;51.334;3.244;2022-09-24T08:49:38;17.00;99.90
22813;DHT22;11573;51.334;3.244;2022-09-24T08:52:32;16.90;99.90
22813;DHT22;11573;51.334;3.244;2022-09-24T08:55:11;17.00;99.90
22813;DHT22;11573;51.334;3.244;2022-09-24T08:57:48;17.00;99.90
22813;DHT22;11573;51.334;3.244;2022-09-24T09:00:16;17.00;99.90
22813;DHT22;11573;51.334;3.244;2022-09-24T09:03:05;16.80;99.90
22813;DHT22;11573;51.334;3.244;2022-09-24T09:05:42;16.80;99.90
22813;DHT22;11573;51.334;3.244;2022-09-24T09:08:36;16.80;99.90
22813;DHT22;11573;51.334;3.244;2022-09-24T09:11:28;16.90;99.90
22813;DHT22;11573;51.334;3.244;2022-09-24T09:14:16;17.10;99.90
22813;DHT22;11573;51.334;3.244;2022-09-24T09:17:16;17.20;99.90
22813;DHT22;11573;51.334;3.244;2022-09-24T09:19:51;17.30;99.90
22813;DHT22;11573;51.334;3.244;2022-09-24T09:22:22;17.20;99.90
22813;DHT22;11573;51.334;3.244;2022-09-24T09:24:51;17.20;99.90
22813;DHT22;11573;51.334;3.244;2022-09-24T09:27:19;17.20;99.90
22813;DHT22;11573;51.334;3.244;2022-09-24T09:29:52;17.20;99.90
22813;DHT22;11573;51.334;3.244;2022-09-24T09:32:30;17.10;99.90
22813;DHT22;11573;51.334;3.244;2022-09-24T09:43:04;17.20;99.90
22813;DHT22;11573;51.334;3.244;2022-09-24T09:45:42;17.30;99.90
22813;DHT22;11573;51.334;3.244;2022-09-24T09:48:14;17.20;99.90
22813;DHT22;11573;51.334;3.244;2022-09-24T09:50:49;17.20;99.90
22813;DHT22;11573;51.334;3.244;2022-09-24T09:53:27;17.40;99.90
22813;DHT22;11573;51.334;3.244;2022-09-24T09:56:03;17.60;99.90
22813;DHT22;11573;51.334;3.244;2022-09-24T09:58:42;17.80;99.90
22813;DHT22;11573;51.334;3.244;2022-09-24T10:01:15;18.00;99.90
22813;DHT22;11573;51.334;3.244;2022-09-24T10:06:26;17.90;99.90
22813;DHT22;11573;51.334;3.244;2022-09-24T10:09:11;18.00;99.90
22813;DHT22;11573;51.334;3.244;2022-09-24T10:11:38;18.00;99.90
22813;DHT22;11573;51.334;3.244;2022-09-24T10:14:09;18.00;99.90
22813;DHT22;11573;51.334;3.244;2022-09-24T10:16:45;18.00;99.90
22813;DHT22;11573;51.334;3.244;2022-09-24T10:19:25;17.80;99.90
22813;DHT22;11573;51.334;3.244;2022-09-24T10:21:55;17.90;99.90
22813;DHT22;11573;51.334;3.244;2022-09-24T10:24:25;18.00;99.90
22813;DHT22;11573;51.334;3.244;2022-09-24T10:26:53;18.10;99.90
22813;DHT22;11573;51.334;3.244;2022-09-24T10:29:29;18.10;99.90
22813;DHT22;11573;51.334;3.244;2022-09-24T10:32:21;18.10;99.90
22813;DHT22;11573;51.334;3.244;2022-09-24T10:35:00;18.10;99.90
22813;DHT22;11573;51.334;3.244;2022-09-24T10:37:28;18.40;99.90
22813;DHT22;11573;51.334;3.244;2022-09-24T10:40:22;18.50;99.90
22813;DHT22;11573;51.334;3.244;2022-09-24T10:43:02;18.40;99.90
22813;DHT22;11573;51.334;3.244;2022-09-24T10:48:26;18.30;99.90
22813;DHT22;11573;51.334;3.244;2022-09-24T10:56:36;18.60;99.90
22813;DHT22;11573;51.334;3.244;2022-09-24T11:07:37;18.20;99.90
22813;DHT22;11573;51.334;3.244;2022-09-24T11:10:33;18.10;99.90
22813;DHT22;11573;51.334;3.244;2022-09-24T11:13:16;18.10;99.90
22813;DHT22;11573;51.334;3.244;2022-09-24T11:16:09;18.10;99.90
22813;DHT22;11573;51.334;3.244;2022-09-24T11:18:57;18.10;99.90
22813;DHT22;11573;51.334;3.244;2022-09-24T11:21:52;18.20;99.90
22813;DHT22;11573;51.334;3.244;2022-09-24T11:30:22;18.90;99.90
22813;DHT22;11573;51.334;3.244;2022-09-24T11:46:49;18.40;99.90
22813;DHT22;11573;51.334;3.244;2022-09-24T11:51:53;18.10;99.90
22813;DHT22;11573;51.334;3.244;2022-09-24T11:54:42;18.20;99.90
22813;DHT22;11573;51.334;3.244;2022-09-24T11:57:45;18.30;99.90
22813;DHT22;11573;51.334;3.244;2022-09-24T12:00:18;18.50;99.90
22813;DHT22;11573;51.334;3.244;2022-09-24T12:02:50;18.90;99.90
22813;DHT22;11573;51.334;3.244;2022-09-24T12:05:27;18.90;99.90
22813;DHT22;11573;51.334;3.244;2022-09-24T12:18:53;18.60;99.90
22813;DHT22;11573;51.334;3.244;2022-09-24T12:21:25;18.60;99.90
22813;DHT22;11573;51.334;3.244;2022-09-24T12:23:59;18.60;99.90
22813;DHT22;11573;51.334;3.244;2022-09-24T12:26:29;18.60;99.90
22813;DHT22;11573;51.334;3.244;2022-09-24T12:32:36;18.70;99.90
22813;DHT22;11573;51.334;3.244;2022-09-24T12:38:17;18.60;99.90
22813;DHT22;11573;51.334;3.244;2022-09-24T12:43:34;18.20;99.90
22813;DHT22;11573;51.334;3.244;2022-09-24T12:46:04;18.00;99.90
22813;DHT22;11573;51.334;3.244;2022-09-24T12:48:36;18.10;99.90
22813;DHT22;11573;51.334;3.244;2022-09-24T12:51:05;18.10;99.90
22813;DHT22;11573;51.334;3.244;2022-09-24T12:53:37;18.30;99.90
22813;DHT22;11573;51.334;3.244;2022-09-24T12:56:06;18.30;99.90
22813;DHT22;11573;51.334;3.244;2022-09-24T12:58:36;18.30;99.90
22813;DHT22;11573;51.334;3.244;2022-09-24T13:03:40;18.30;99.90
22813;DHT22;11573;51.334;3.244;2022-09-24T13:06:36;18.40;99.90
22813;DHT22;11573;51.334;3.244;2022-09-24T13:15:05;18.30;99.90
22813;DHT22;11573;51.334;3.244;2022-09-24T13:17:35;18.40;99.90
22813;DHT22;11573;51.334;3.244;2022-09-24T13:20:06;18.30;99.90
22813;DHT22;11573;51.334;3.244;2022-09-24T13:22:35;18.30;99.90
22813;DHT22;11573;51.334;3.244;2022-09-24T13:27:39;18.50;99.90
22813;DHT22;11573;51.334;3.244;2022-09-24T13:33:08;18.50;99.90
22813;DHT22;11573;51.334;3.244;2022-09-24T13:36:09;18.20;99.90
22813;DHT22;11573;51.334;3.244;2022-09-24T13:41:39;18.30;99.90
22813;DHT22;11573;51.334;3.244;2022-09-24T13:46:44;18.20;99.90
22813;DHT22;11573;51.334;3.244;2022-09-24T13:49:17;18.10;99.90
22813;DHT22;11573;51.334;3.244;2022-09-24T13:51:46;18.10;99.90
22813;DHT22;11573;51.334;3.244;2022-09-24T13:57:11;18.50;99.90
22813;DHT22;11573;51.334;3.244;2022-09-24T13:59:38;18.40;99.90
22813;DHT22;11573;51.334;3.244;2022-09-24T14:02:26;18.40;99.90
22813;DHT22;11573;51.334;3.244;2022-09-24T14:04:55;18.40;99.90
22813;DHT22;11573;51.334;3.244;2022-09-24T14:07:25;18.40;99.90
22813;DHT22;11573;51.334;3.244;2022-09-24T14:10:11;18.50;99.90
22813;DHT22;11573;51.334;3.244;2022-09-24T14:12:39;18.50;99.90
22813;DHT22;11573;51.334;3.244;2022-09-24T14:15:13;18.40;99.90
22813;DHT22;11573;51.334;3.244;2022-09-24T14:17:40;18.30;99.90
22813;DHT22;11573;51.334;3.244;2022-09-24T14:20:12;18.10;99.90
22813;DHT22;11573;51.334;3.244;2022-09-24T14:22:43;18.20;99.90
22813;DHT22;11573;51.334;3.244;2022-09-24T14:25:17;18.30;99.90
22813;DHT22;11573;51.334;3.244;2022-09-24T14:27:49;18.30;99.90
22813;DHT22;11573;51.334;3.244;2022-09-24T14:30:22;18.30;99.90
22813;DHT22;11573;51.334;3.244;2022-09-24T14:33:00;18.20;99.90
22813;DHT22;11573;51.334;3.244;2022-09-24T14:35:31;18.10;99.90
22813;DHT22;11573;51.334;3.244;2022-09-24T14:38:02;18.20;99.90
22813;DHT22;11573;51.334;3.244;2022-09-24T14:45:43;18.30;99.90
22813;DHT22;11573;51.334;3.244;2022-09-24T14:50:45;18.10;99.90
22813;DHT22;11573;51.334;3.244;2022-09-24T14:53:34;18.10;99.90
22813;DHT22;11573;51.334;3.244;2022-09-24T14:56:24;17.90;99.90
22813;DHT22;11573;51.334;3.244;2022-09-24T14:58:51;17.90;99.90
22813;DHT22;11573;51.334;3.244;2022-09-24T15:01:20;17.90;99.90
22813;DHT22;11573;51.334;3.244;2022-09-24T15:03:56;17.80;99.90
22813;DHT22;11573;51.334;3.244;2022-09-24T15:06:28;17.80;99.90
22813;DHT22;11573;51.334;3.244;2022-09-24T15:09:03;17.80;99.90
22813;DHT22;11573;51.334;3.244;2022-09-24T15:11:36;18.00;99.90
22813;DHT22;11573;51.334;3.244;2022-09-24T15:14:19;18.00;99.90
22813;DHT22;11573;51.334;3.244;2022-09-24T15:16:50;17.90;99.90
22813;DHT22;11573;51.334;3.244;2022-09-24T15:19:23;17.90;99.90
22813;DHT22;11573;51.334;3.244;2022-09-24T15:21:54;17.80;99.90
22813;DHT22;11573;51.334;3.244;2022-09-24T15:24:23;17.80;99.90
22813;DHT22;11573;51.334;3.244;2022-09-24T15:27:01;17.80;99.90
22813;DHT22;11573;51.334;3.244;2022-09-24T15:29:28;17.80;99.90
22813;DHT22;11573;51.334;3.244;2022-09-24T15:31:56;17.70;99.90
22813;DHT22;11573;51.334;3.244;2022-09-24T15:34:24;17.70;99.90
22813;DHT22;11573;51.334;3.244;2022-09-24T15:36:54;17.70;99.90
22813;DHT22;11573;51.334;3.244;2022-09-24T15:39:24;17.70;99.90
22813;DHT22;11573;51.334;3.244;2022-09-24T15:41:51;17.80;99.90
22813;DHT22;11573;51.334;3.244;2022-09-24T15:44:25;18.00;99.90
22813;DHT22;11573;51.334;3.244;2022-09-24T15:46:59;18.10;99.90
22813;DHT22;11573;51.334;3.244;2022-09-24T15:49:26;18.00;99.90
22813;DHT22;11573;51.334;3.244;2022-09-24T15:54:40;17.50;99.90
22813;DHT22;11573;51.334;3.244;2022-09-24T15:57:11;17.40;99.90
22813;DHT22;11573;51.334;3.244;2022-09-24T15:59:38;17.40;99.90
22813;DHT22;11573;51.334;3.244;2022-09-24T16:02:17;17.60;99.90
22813;DHT22;11573;51.334;3.244;2022-09-24T16:04:46;17.60;99.90
22813;DHT22;11573;51.334;3.244;2022-09-24T16:07:13;17.50;99.90
22813;DHT22;11573;51.334;3.244;2022-09-24T16:09:40;17.40;99.90
22813;DHT22;11573;51.334;3.244;2022-09-24T16:12:10;17.40;99.90
22813;DHT22;11573;51.334;3.244;2022-09-24T16:14:39;17.40;99.90
22813;DHT22;11573;51.334;3.244;2022-09-24T16:17:06;17.30;99.90
22813;DHT22;11573;51.334;3.244;2022-09-24T16:19:33;17.10;99.90
22813;DHT22;11573;51.334;3.244;2022-09-24T16:21:59;17.20;99.90
22813;DHT22;11573;51.334;3.244;2022-09-24T16:24:29;17.20;99.90
22813;DHT22;11573;51.334;3.244;2022-09-24T16:26:57;17.00;99.90
22813;DHT22;11573;51.334;3.244;2022-09-24T16:29:25;16.80;99.90
22813;DHT22;11573;51.334;3.244;2022-09-24T16:31:52;16.80;99.90
22813;DHT22;11573;51.334;3.244;2022-09-24T16:34:19;16.80;99.90
22813;DHT22;11573;51.334;3.244;2022-09-24T16:36:46;16.80;99.90
22813;DHT22;11573;51.334;3.244;2022-09-24T16:39:13;16.80;99.90
22813;DHT22;11573;51.334;3.244;2022-09-24T16:41:41;16.70;99.90
22813;DHT22;11573;51.334;3.244;2022-09-24T16:44:09;16.70;99.90
22813;DHT22;11573;51.334;3.244;2022-09-24T16:46:41;16.70;99.90
22813;DHT22;11573;51.334;3.244;2022-09-24T16:49:09;16.70;99.90
22813;DHT22;11573;51.334;3.244;2022-09-24T16:51:36;16.70;99.90
22813;DHT22;11573;51.334;3.244;2022-09-24T16:54:04;16.60;99.90
22813;DHT22;11573;51.334;3.244;2022-09-24T16:56:33;16.50;99.90
22813;DHT22;11573;51.334;3.244;2022-09-24T16:59:00;16.50;99.90
22813;DHT22;11573;51.334;3.244;2022-09-24T17:01:27;16.40;99.90
22813;DHT22;11573;51.334;3.244;2022-09-24T17:03:56;16.40;99.90
22813;DHT22;11573;51.334;3.244;2022-09-24T17:06:28;16.40;99.90
22813;DHT22;11573;51.334;3.244;2022-09-24T17:08:56;16.30;99.90
22813;DHT22;11573;51.334;3.244;2022-09-24T17:11:41;16.20;99.90
22813;DHT22;11573;51.334;3.244;2022-09-24T17:14:10;16.20;99.90
22813;DHT22;11573;51.334;3.244;2022-09-24T17:16:42;16.10;99.90
22813;DHT22;11573;51.334;3.244;2022-09-24T17:19:09;16.10;99.90
22813;DHT22;11573;51.334;3.244;2022-09-24T17:21:39;16.10;99.90
22813;DHT22;11573;51.334;3.244;2022-09-24T17:24:07;16.10;99.90
22813;DHT22;11573;51.334;3.244;2022-09-24T17:26:34;16.10;99.90
22813;DHT22;11573;51.334;3.244;2022-09-24T17:29:01;16.00;99.90
22813;DHT22;11573;51.334;3.244;2022-09-24T17:31:28;16.00;99.90
22813;DHT22;11573;51.334;3.244;2022-09-24T17:33:56;16.00;99.90
22813;DHT22;11573;51.334;3.244;2022-09-24T17:36:24;16.00;99.90
22813;DHT22;11573;51.334;3.244;2022-09-24T17:38:52;15.90;99.90
22813;DHT22;11573;51.334;3.244;2022-09-24T17:41:19;15.90;99.90
22813;DHT22;11573;51.334;3.244;2022-09-24T17:43:47;15.90;99.90
22813;DHT22;11573;51.334;3.244;2022-09-24T17:46:16;15.90;99.90
22813;DHT22;11573;51.334;3.244;2022-09-24T17:48:45;15.90;99.90
22813;DHT22;11573;51.334;3.244;2022-09-24T17:51:20;15.90;99.90
22813;DHT22;11573;51.334;3.244;2022-09-24T17:53:52;15.80;99.90
22813;DHT22;11573;51.334;3.244;2022-09-24T17:56:21;15.80;99.90
22813;DHT22;11573;51.334;3.244;2022-09-24T17:58:49;15.80;99.90
22813;DHT22;11573;51.334;3.244;2022-09-24T18:01:27;15.80;99.90